sensor_id;sensor_type;location;lat;lon;timestamp;pressure;altitude;pressure_sealevel;temperature;humidity
81997;BME280;71500;50.806;8.774;2023-12-20T00:00:46;99520.48;;;5.22;87.44
81997;BME280;71500;50.806;8.774;2023-12-20T00:03:37;99519.04;;;5.22;87.63
81997;BME280;71500;50.806;8.774;2023-12-20T00:06:12;99512.61;;;5.24;87.49
81997;BME280;71500;50.806;8.774;2023-12-20T00:08:43;99512.52;;;5.27;87.42
81997;BME280;71500;50.806;8.774;2023-12-20T00:11:15;99510.61;;;5.29;87.28
81997;BME280;71500;50.806;8.774;2023-12-20T00:13:46;99510.61;;;5.29;87.20
81997;BME280;71500;50.806;8.774;2023-12-20T00:16:21;99510.01;;;5.28;87.30
81997;BME280;71500;50.806;8.774;2023-12-20T00:18:52;99513.65;;;5.26;87.20
81997;BME280;71500;50.806;8.774;2023-12-20T00:21:24;99511.81;;;5.25;87.21
81997;BME280;71500;50.806;8.774;2023-12-20T00:23:55;99515.67;;;5.25;87.15
81997;BME280;71500;50.806;8.774;2023-12-20T00:26:26;99520.46;;;5.24;87.16
81997;BME280;71500;50.806;8.774;2023-12-20T00:28:59;99513.31;;;5.21;87.32
81997;BME280;71500;50.806;8.774;2023-12-20T00:31:30;99511.93;;;5.18;87.44
81997;BME280;71500;50.806;8.774;2023-12-20T00:34:01;99512.74;;;5.19;87.48
81997;BME280;71500;50.806;8.774;2023-12-20T00:36:33;99508.55;;;5.21;87.28
81997;BME280;71500;50.806;8.774;2023-12-20T00:39:05;99502.35;;;5.22;87.27
81997;BME280;71500;50.806;8.774;2023-12-20T00:41:37;99497.59;;;5.22;87.42
81997;BME280;71500;50.806;8.774;2023-12-20T00:44:08;99498.25;;;5.22;87.35
81997;BME280;71500;50.806;8.774;2023-12-20T00:46:39;99496.52;;;5.22;87.38
81997;BME280;71500;50.806;8.774;2023-12-20T00:49:11;99503.06;;;5.22;87.34
81997;BME280;71500;50.806;8.774;2023-12-20T00:51:42;99499.39;;;5.24;87.33
81997;BME280;71500;50.806;8.774;2023-12-20T00:54:14;99497.67;;;5.26;87.27
81997;BME280;71500;50.806;8.774;2023-12-20T00:56:45;99495.09;;;5.25;87.17
81997;BME280;71500;50.806;8.774;2023-12-20T00:59:17;99485.65;;;5.24;87.31
81997;BME280;71500;50.806;8.774;2023-12-20T01:01:49;99479.35;;;5.23;87.36
81997;BME280;71500;50.806;8.774;2023-12-20T01:04:21;99481.15;;;5.23;87.23
81997;BME280;71500;50.806;8.774;2023-12-20T01:06:53;99480.35;;;5.24;87.21
81997;BME280;71500;50.806;8.774;2023-12-20T01:09:24;99477.46;;;5.25;87.11
81997;BME280;71500;50.806;8.774;2023-12-20T01:11:56;99479.88;;;5.26;87.10
81997;BME280;71500;50.806;8.774;2023-12-20T01:14:28;99478.86;;;5.23;87.13
81997;BME280;71500;50.806;8.774;2023-12-20T01:16:59;99478.35;;;5.23;87.31
81997;BME280;71500;50.806;8.774;2023-12-20T01:19:30;99475.98;;;5.24;87.14
81997;BME280;71500;50.806;8.774;2023-12-20T01:22:02;99479.30;;;5.27;87.17
81997;BME280;71500;50.806;8.774;2023-12-20T01:24:33;99472.93;;;5.29;87.15
81997;BME280;71500;50.806;8.774;2023-12-20T01:27:05;99464.58;;;5.28;87.11
81997;BME280;71500;50.806;8.774;2023-12-20T01:29:36;99481.08;;;5.29;87.21
81997;BME280;71500;50.806;8.774;2023-12-20T01:32:09;99491.57;;;5.27;87.24
81997;BME280;71500;50.806;8.774;2023-12-20T01:34:40;99491.25;;;5.27;87.14
81997;BME280;71500;50.806;8.774;2023-12-20T01:37:11;99490.46;;;5.28;87.07
81997;BME280;71500;50.806;8.774;2023-12-20T01:39:44;99482.75;;;5.28;87.11
81997;BME280;71500;50.806;8.774;2023-12-20T01:42:15;99479.85;;;5.26;87.11
81997;BME280;71500;50.806;8.774;2023-12-20T01:44:47;99472.50;;;5.26;87.23
81997;BME280;71500;50.806;8.774;2023-12-20T01:47:19;99478.00;;;5.25;87.08
81997;BME280;71500;50.806;8.774;2023-12-20T01:49:50;99475.00;;;5.25;87.13
81997;BME280;71500;50.806;8.774;2023-12-20T01:52:22;99469.33;;;5.26;87.07
81997;BME280;71500;50.806;8.774;2023-12-20T01:54:54;99475.05;;;5.27;87.17
81997;BME280;71500;50.806;8.774;2023-12-20T01:57:31;99472.94;;;5.27;87.21
81997;BME280;71500;50.806;8.774;2023-12-20T02:00:05;99469.13;;;5.28;87.25
81997;BME280;71500;50.806;8.774;2023-12-20T02:02:37;99468.70;;;5.25;87.21
81997;BME280;71500;50.806;8.774;2023-12-20T02:05:10;99477.14;;;5.30;87.20
81997;BME280;71500;50.806;8.774;2023-12-20T02:07:42;99476.33;;;5.29;87.16
81997;BME280;71500;50.806;8.774;2023-12-20T02:10:14;99468.73;;;5.29;87.04
81997;BME280;71500;50.806;8.774;2023-12-20T02:12:47;99468.37;;;5.29;87.12
81997;BME280;71500;50.806;8.774;2023-12-20T02:15:18;99475.02;;;5.30;87.06
81997;BME280;71500;50.806;8.774;2023-12-20T02:17:50;99478.04;;;5.29;87.05
81997;BME280;71500;50.806;8.774;2023-12-20T02:20:22;99476.09;;;5.30;87.15
81997;BME280;71500;50.806;8.774;2023-12-20T02:22:53;99475.19;;;5.30;87.11
81997;BME280;71500;50.806;8.774;2023-12-20T02:25:24;99479.70;;;5.31;87.12
81997;BME280;71500;50.806;8.774;2023-12-20T02:27:56;99476.47;;;5.32;87.07
81997;BME280;71500;50.806;8.774;2023-12-20T02:30:27;99471.36;;;5.32;87.05
81997;BME280;71500;50.806;8.774;2023-12-20T02:33:00;99465.16;;;5.33;87.12
81997;BME280;71500;50.806;8.774;2023-12-20T02:35:32;99464.44;;;5.33;87.07
81997;BME280;71500;50.806;8.774;2023-12-20T02:38:03;99467.84;;;5.32;87.07
81997;BME280;71500;50.806;8.774;2023-12-20T02:40:35;99465.27;;;5.32;87.14
81997;BME280;71500;50.806;8.774;2023-12-20T02:43:06;99465.52;;;5.32;87.02
81997;BME280;71500;50.806;8.774;2023-12-20T02:45:37;99477.08;;;5.34;87.04
81997;BME280;71500;50.806;8.774;2023-12-20T02:48:09;99478.51;;;5.33;87.19
81997;BME280;71500;50.806;8.774;2023-12-20T02:50:41;99483.31;;;5.32;87.18
81997;BME280;71500;50.806;8.774;2023-12-20T02:53:12;99481.48;;;5.31;87.16
81997;BME280;71500;50.806;8.774;2023-12-20T02:55:44;99482.61;;;5.32;87.15
81997;BME280;71500;50.806;8.774;2023-12-20T02:58:15;99487.73;;;5.35;87.23
81997;BME280;71500;50.806;8.774;2023-12-20T03:00:48;99488.34;;;5.36;87.28
81997;BME280;71500;50.806;8.774;2023-12-20T03:03:19;99482.37;;;5.38;87.27
81997;BME280;71500;50.806;8.774;2023-12-20T03:05:51;99477.84;;;5.40;87.27
81997;BME280;71500;50.806;8.774;2023-12-20T03:08:23;99480.91;;;5.41;87.30
81997;BME280;71500;50.806;8.774;2023-12-20T03:10:57;99482.44;;;5.42;87.21
81997;BME280;71500;50.806;8.774;2023-12-20T03:13:29;99492.48;;;5.42;87.32
81997;BME280;71500;50.806;8.774;2023-12-20T03:16:00;99492.77;;;5.43;87.16
81997;BME280;71500;50.806;8.774;2023-12-20T03:18:32;99494.04;;;5.47;87.20
81997;BME280;71500;50.806;8.774;2023-12-20T03:21:03;99502.00;;;5.49;87.10
81997;BME280;71500;50.806;8.774;2023-12-20T03:23:35;99510.19;;;5.52;87.16
81997;BME280;71500;50.806;8.774;2023-12-20T03:26:09;99508.73;;;5.55;86.95
81997;BME280;71500;50.806;8.774;2023-12-20T03:28:40;99512.19;;;5.59;87.08
81997;BME280;71500;50.806;8.774;2023-12-20T03:31:12;99508.80;;;5.59;86.95
81997;BME280;71500;50.806;8.774;2023-12-20T03:33:43;99508.75;;;5.60;86.87
81997;BME280;71500;50.806;8.774;2023-12-20T03:36:15;99503.60;;;5.60;86.99
81997;BME280;71500;50.806;8.774;2023-12-20T03:38:47;99497.95;;;5.61;86.54
81997;BME280;71500;50.806;8.774;2023-12-20T03:41:18;99495.84;;;5.61;85.91
81997;BME280;71500;50.806;8.774;2023-12-20T03:43:49;99495.84;;;5.61;85.68
81997;BME280;71500;50.806;8.774;2023-12-20T03:46:21;99498.17;;;5.60;85.15
81997;BME280;71500;50.806;8.774;2023-12-20T03:48:52;99497.84;;;5.60;84.57
81997;BME280;71500;50.806;8.774;2023-12-20T03:51:24;99499.96;;;5.62;83.80
81997;BME280;71500;50.806;8.774;2023-12-20T03:53:55;99504.17;;;5.62;83.17
81997;BME280;71500;50.806;8.774;2023-12-20T03:56:26;99508.96;;;5.62;82.97
81997;BME280;71500;50.806;8.774;2023-12-20T03:58:58;99509.07;;;5.60;82.99
81997;BME280;71500;50.806;8.774;2023-12-20T04:01:29;99518.95;;;5.58;82.62
81997;BME280;71500;50.806;8.774;2023-12-20T04:04:00;99529.91;;;5.55;82.53
81997;BME280;71500;50.806;8.774;2023-12-20T04:06:32;99534.16;;;5.52;82.66
81997;BME280;71500;50.806;8.774;2023-12-20T04:09:03;99533.76;;;5.50;82.58
81997;BME280;71500;50.806;8.774;2023-12-20T04:11:35;99534.29;;;5.53;82.31
81997;BME280;71500;50.806;8.774;2023-12-20T04:14:07;99533.27;;;5.55;82.07
81997;BME280;71500;50.806;8.774;2023-12-20T04:16:38;99526.08;;;5.57;82.33
81997;BME280;71500;50.806;8.774;2023-12-20T04:19:13;99522.33;;;5.57;82.23
81997;BME280;71500;50.806;8.774;2023-12-20T04:21:44;99521.13;;;5.54;82.11
81997;BME280;71500;50.806;8.774;2023-12-20T04:24:16;99522.52;;;5.52;82.35
81997;BME280;71500;50.806;8.774;2023-12-20T04:26:47;99521.05;;;5.48;82.39
81997;BME280;71500;50.806;8.774;2023-12-20T04:29:19;99532.24;;;5.47;82.82
81997;BME280;71500;50.806;8.774;2023-12-20T04:31:50;99529.95;;;5.45;82.81
81997;BME280;71500;50.806;8.774;2023-12-20T04:34:23;99518.54;;;5.42;82.65
81997;BME280;71500;50.806;8.774;2023-12-20T04:36:55;99532.84;;;5.36;82.59
81997;BME280;71500;50.806;8.774;2023-12-20T04:39:27;99531.02;;;5.32;82.77
81997;BME280;71500;50.806;8.774;2023-12-20T04:41:58;99539.43;;;5.25;82.76
81997;BME280;71500;50.806;8.774;2023-12-20T04:44:30;99545.16;;;5.23;82.71
81997;BME280;71500;50.806;8.774;2023-12-20T04:47:01;99545.50;;;5.21;83.08
81997;BME280;71500;50.806;8.774;2023-12-20T04:49:33;99545.09;;;5.22;83.14
81997;BME280;71500;50.806;8.774;2023-12-20T04:52:05;99552.16;;;5.22;83.07
81997;BME280;71500;50.806;8.774;2023-12-20T04:54:37;99559.88;;;5.22;83.12
81997;BME280;71500;50.806;8.774;2023-12-20T04:57:12;99573.83;;;5.22;83.19
81997;BME280;71500;50.806;8.774;2023-12-20T04:59:43;99572.33;;;5.20;83.37
81997;BME280;71500;50.806;8.774;2023-12-20T05:02:14;99575.38;;;5.22;83.45
81997;BME280;71500;50.806;8.774;2023-12-20T05:04:46;99568.50;;;5.22;83.38
81997;BME280;71500;50.806;8.774;2023-12-20T05:07:17;99560.80;;;5.22;83.11
81997;BME280;71500;50.806;8.774;2023-12-20T05:09:49;99560.27;;;5.24;83.11
81997;BME280;71500;50.806;8.774;2023-12-20T05:12:20;99557.33;;;5.28;82.87
81997;BME280;71500;50.806;8.774;2023-12-20T05:14:53;99554.98;;;5.32;82.77
81997;BME280;71500;50.806;8.774;2023-12-20T05:17:24;99560.52;;;5.33;82.57
81997;BME280;71500;50.806;8.774;2023-12-20T05:19:55;99556.94;;;5.32;82.63
81997;BME280;71500;50.806;8.774;2023-12-20T05:22:27;99568.11;;;5.36;82.49
81997;BME280;71500;50.806;8.774;2023-12-20T05:24:58;99569.14;;;5.36;82.43
81997;BME280;71500;50.806;8.774;2023-12-20T05:27:30;99568.95;;;5.36;82.38
81997;BME280;71500;50.806;8.774;2023-12-20T05:30:02;99563.95;;;5.35;81.79
81997;BME280;71500;50.806;8.774;2023-12-20T05:32:34;99561.48;;;5.37;81.94
81997;BME280;71500;50.806;8.774;2023-12-20T05:35:07;99562.29;;;5.38;82.07
81997;BME280;71500;50.806;8.774;2023-12-20T05:37:38;99563.34;;;5.38;82.24
81997;BME280;71500;50.806;8.774;2023-12-20T05:40:11;99565.14;;;5.40;82.54
81997;BME280;71500;50.806;8.774;2023-12-20T05:42:43;99568.25;;;5.41;82.57
81997;BME280;71500;50.806;8.774;2023-12-20T05:45:16;99577.22;;;5.41;82.58
81997;BME280;71500;50.806;8.774;2023-12-20T05:47:47;99578.30;;;5.41;82.75
81997;BME280;71500;50.806;8.774;2023-12-20T05:50:19;99578.77;;;5.39;82.71
81997;BME280;71500;50.806;8.774;2023-12-20T05:52:51;99579.38;;;5.38;82.86
81997;BME280;71500;50.806;8.774;2023-12-20T05:55:22;99581.05;;;5.37;82.86
81997;BME280;71500;50.806;8.774;2023-12-20T05:57:54;99582.32;;;5.36;82.88
81997;BME280;71500;50.806;8.774;2023-12-20T06:00:25;99585.17;;;5.38;82.86
81997;BME280;71500;50.806;8.774;2023-12-20T06:02:57;99575.61;;;5.41;82.88
81997;BME280;71500;50.806;8.774;2023-12-20T06:05:28;99579.27;;;5.42;83.09
81997;BME280;71500;50.806;8.774;2023-12-20T06:07:59;99581.81;;;5.41;82.83
81997;BME280;71500;50.806;8.774;2023-12-20T06:10:33;99585.98;;;5.37;82.66
81997;BME280;71500;50.806;8.774;2023-12-20T06:13:04;99587.81;;;5.33;82.62
81997;BME280;71500;50.806;8.774;2023-12-20T06:15:37;99583.05;;;5.28;82.47
81997;BME280;71500;50.806;8.774;2023-12-20T06:18:08;99579.85;;;5.23;82.63
81997;BME280;71500;50.806;8.774;2023-12-20T06:20:40;99582.48;;;5.19;82.72
81997;BME280;71500;50.806;8.774;2023-12-20T06:23:11;99581.27;;;5.18;82.72
81997;BME280;71500;50.806;8.774;2023-12-20T06:25:43;99590.17;;;5.15;82.64
81997;BME280;71500;50.806;8.774;2023-12-20T06:28:15;99588.59;;;5.12;82.77
81997;BME280;71500;50.806;8.774;2023-12-20T06:30:46;99590.25;;;5.11;82.84
81997;BME280;71500;50.806;8.774;2023-12-20T06:33:20;99589.46;;;5.07;82.87
81997;BME280;71500;50.806;8.774;2023-12-20T06:35:52;99585.91;;;5.05;82.99
81997;BME280;71500;50.806;8.774;2023-12-20T06:38:24;99581.01;;;5.02;82.95
81997;BME280;71500;50.806;8.774;2023-12-20T06:40:55;99577.47;;;5.00;82.93
81997;BME280;71500;50.806;8.774;2023-12-20T06:43:28;99581.70;;;4.97;82.87
81997;BME280;71500;50.806;8.774;2023-12-20T06:46:18;99581.70;;;4.95;82.86
81997;BME280;71500;50.806;8.774;2023-12-20T06:48:50;99582.31;;;4.93;82.97
81997;BME280;71500;50.806;8.774;2023-12-20T06:51:21;99575.98;;;4.93;82.70
81997;BME280;71500;50.806;8.774;2023-12-20T06:53:55;99578.73;;;4.92;82.53
81997;BME280;71500;50.806;8.774;2023-12-20T06:56:27;99573.73;;;4.90;82.54
81997;BME280;71500;50.806;8.774;2023-12-20T06:58:58;99569.86;;;4.90;82.37
81997;BME280;71500;50.806;8.774;2023-12-20T07:01:29;99571.69;;;4.87;82.52
81997;BME280;71500;50.806;8.774;2023-12-20T07:04:01;99570.14;;;4.87;82.53
81997;BME280;71500;50.806;8.774;2023-12-20T07:06:32;99562.48;;;4.85;82.26
81997;BME280;71500;50.806;8.774;2023-12-20T07:09:04;99567.86;;;4.86;82.34
81997;BME280;71500;50.806;8.774;2023-12-20T07:11:35;99577.63;;;4.88;82.26
81997;BME280;71500;50.806;8.774;2023-12-20T07:14:06;99584.73;;;4.89;82.47
81997;BME280;71500;50.806;8.774;2023-12-20T07:16:38;99577.77;;;4.91;82.34
81997;BME280;71500;50.806;8.774;2023-12-20T07:19:10;99569.13;;;4.91;82.40
81997;BME280;71500;50.806;8.774;2023-12-20T07:21:41;99572.73;;;4.90;82.53
81997;BME280;71500;50.806;8.774;2023-12-20T07:24:13;99572.02;;;4.87;82.56
81997;BME280;71500;50.806;8.774;2023-12-20T07:26:44;99575.81;;;4.86;82.63
81997;BME280;71500;50.806;8.774;2023-12-20T07:29:16;99580.77;;;4.83;82.68
81997;BME280;71500;50.806;8.774;2023-12-20T07:31:47;99583.58;;;4.83;82.73
81997;BME280;71500;50.806;8.774;2023-12-20T07:34:19;99585.42;;;4.82;82.73
81997;BME280;71500;50.806;8.774;2023-12-20T07:36:51;99586.02;;;4.81;82.89
81997;BME280;71500;50.806;8.774;2023-12-20T07:39:22;99586.27;;;4.79;83.05
81997;BME280;71500;50.806;8.774;2023-12-20T07:41:53;99586.85;;;4.79;83.14
81997;BME280;71500;50.806;8.774;2023-12-20T07:44:25;99590.84;;;4.80;83.11
81997;BME280;71500;50.806;8.774;2023-12-20T07:46:56;99593.64;;;4.80;83.21
81997;BME280;71500;50.806;8.774;2023-12-20T07:49:28;99596.84;;;4.80;83.27
81997;BME280;71500;50.806;8.774;2023-12-20T07:52:00;99596.29;;;4.80;83.28
81997;BME280;71500;50.806;8.774;2023-12-20T07:54:31;99597.64;;;4.81;83.17
81997;BME280;71500;50.806;8.774;2023-12-20T07:57:03;99597.09;;;4.81;83.19
81997;BME280;71500;50.806;8.774;2023-12-20T07:59:34;99605.83;;;4.79;83.39
81997;BME280;71500;50.806;8.774;2023-12-20T08:02:07;99607.77;;;4.79;83.46
81997;BME280;71500;50.806;8.774;2023-12-20T08:04:38;99616.44;;;4.78;83.47
81997;BME280;71500;50.806;8.774;2023-12-20T08:07:11;99612.58;;;4.81;83.57
81997;BME280;71500;50.806;8.774;2023-12-20T08:09:42;99614.93;;;4.82;83.55
81997;BME280;71500;50.806;8.774;2023-12-20T08:12:14;99607.17;;;4.85;83.68
81997;BME280;71500;50.806;8.774;2023-12-20T08:14:45;99604.18;;;4.85;83.75
81997;BME280;71500;50.806;8.774;2023-12-20T08:17:17;99601.98;;;4.84;83.66
81997;BME280;71500;50.806;8.774;2023-12-20T08:19:49;99602.29;;;4.82;83.76
81997;BME280;71500;50.806;8.774;2023-12-20T08:22:21;99606.79;;;4.83;83.80
81997;BME280;71500;50.806;8.774;2023-12-20T08:24:52;99610.28;;;4.86;83.76
81997;BME280;71500;50.806;8.774;2023-12-20T08:27:24;99610.44;;;4.89;83.76
81997;BME280;71500;50.806;8.774;2023-12-20T08:29:55;99612.40;;;4.89;83.70
81997;BME280;71500;50.806;8.774;2023-12-20T08:32:28;99619.11;;;4.88;83.53
81997;BME280;71500;50.806;8.774;2023-12-20T08:34:59;99621.23;;;4.88;83.76
81997;BME280;71500;50.806;8.774;2023-12-20T08:37:31;99622.48;;;4.91;83.80
81997;BME280;71500;50.806;8.774;2023-12-20T08:40:03;99623.80;;;4.94;83.62
81997;BME280;71500;50.806;8.774;2023-12-20T08:42:34;99625.27;;;4.96;83.52
81997;BME280;71500;50.806;8.774;2023-12-20T08:45:08;99621.39;;;4.98;83.59
81997;BME280;71500;50.806;8.774;2023-12-20T08:47:39;99615.77;;;4.98;83.54
81997;BME280;71500;50.806;8.774;2023-12-20T08:50:12;99620.95;;;5.02;83.54
81997;BME280;71500;50.806;8.774;2023-12-20T08:52:43;99615.98;;;5.08;83.65
81997;BME280;71500;50.806;8.774;2023-12-20T08:55:15;99609.57;;;5.11;83.45
81997;BME280;71500;50.806;8.774;2023-12-20T08:57:48;99610.89;;;5.18;83.28
81997;BME280;71500;50.806;8.774;2023-12-20T09:00:22;99608.92;;;5.21;83.29
81997;BME280;71500;50.806;8.774;2023-12-20T09:02:55;99611.98;;;5.25;83.28
81997;BME280;71500;50.806;8.774;2023-12-20T09:05:26;99615.66;;;5.27;83.24
81997;BME280;71500;50.806;8.774;2023-12-20T09:07:58;99617.85;;;5.32;83.06
81997;BME280;71500;50.806;8.774;2023-12-20T09:10:29;99616.75;;;5.35;82.93
81997;BME280;71500;50.806;8.774;2023-12-20T09:13:01;99612.02;;;5.37;82.87
81997;BME280;71500;50.806;8.774;2023-12-20T09:15:32;99613.23;;;5.40;82.79
81997;BME280;71500;50.806;8.774;2023-12-20T09:18:07;99612.84;;;5.40;82.80
81997;BME280;71500;50.806;8.774;2023-12-20T09:20:38;99617.14;;;5.42;82.57
81997;BME280;71500;50.806;8.774;2023-12-20T09:23:13;99608.64;;;5.43;82.57
81997;BME280;71500;50.806;8.774;2023-12-20T09:25:44;99606.11;;;5.43;82.78
81997;BME280;71500;50.806;8.774;2023-12-20T09:28:16;99612.38;;;5.47;82.79
81997;BME280;71500;50.806;8.774;2023-12-20T09:30:47;99607.63;;;5.54;82.77
81997;BME280;71500;50.806;8.774;2023-12-20T09:33:19;99609.48;;;5.60;82.38
81997;BME280;71500;50.806;8.774;2023-12-20T09:35:50;99610.59;;;5.64;82.21
81997;BME280;71500;50.806;8.774;2023-12-20T09:38:22;99619.64;;;5.68;82.12
81997;BME280;71500;50.806;8.774;2023-12-20T09:40:53;99620.05;;;5.70;81.69
81997;BME280;71500;50.806;8.774;2023-12-20T09:43:26;99619.92;;;5.71;81.37
81997;BME280;71500;50.806;8.774;2023-12-20T09:46:01;99623.48;;;5.76;81.14
81997;BME280;71500;50.806;8.774;2023-12-20T09:48:37;99624.39;;;5.80;81.18
81997;BME280;71500;50.806;8.774;2023-12-20T09:51:09;99622.77;;;5.83;81.27
81997;BME280;71500;50.806;8.774;2023-12-20T09:53:41;99622.71;;;5.82;81.46
81997;BME280;71500;50.806;8.774;2023-12-20T09:56:14;99624.21;;;5.80;81.76
81997;BME280;71500;50.806;8.774;2023-12-20T09:58:46;99620.94;;;5.79;81.63
81997;BME280;71500;50.806;8.774;2023-12-20T10:01:18;99619.66;;;5.80;81.54
81997;BME280;71500;50.806;8.774;2023-12-20T10:03:51;99619.37;;;5.79;81.54
81997;BME280;71500;50.806;8.774;2023-12-20T10:06:25;99614.10;;;5.79;81.78
81997;BME280;71500;50.806;8.774;2023-12-20T10:08:57;99612.45;;;5.77;82.00
81997;BME280;71500;50.806;8.774;2023-12-20T10:11:28;99608.88;;;5.78;82.46
81997;BME280;71500;50.806;8.774;2023-12-20T10:14:01;99601.92;;;5.79;82.52
81997;BME280;71500;50.806;8.774;2023-12-20T10:16:33;99604.98;;;5.83;82.41
81997;BME280;71500;50.806;8.774;2023-12-20T10:19:05;99598.66;;;5.83;82.05
81997;BME280;71500;50.806;8.774;2023-12-20T10:21:36;99603.48;;;5.82;82.08
81997;BME280;71500;50.806;8.774;2023-12-20T10:24:08;99601.44;;;5.81;82.08
81997;BME280;71500;50.806;8.774;2023-12-20T10:26:40;99604.66;;;5.78;81.95
81997;BME280;71500;50.806;8.774;2023-12-20T10:29:11;99597.91;;;5.76;82.24
81997;BME280;71500;50.806;8.774;2023-12-20T10:31:43;99589.48;;;5.76;82.28
81997;BME280;71500;50.806;8.774;2023-12-20T10:34:15;99585.17;;;5.75;82.41
81997;BME280;71500;50.806;8.774;2023-12-20T10:36:47;99586.02;;;5.72;82.45
81997;BME280;71500;50.806;8.774;2023-12-20T10:39:19;99579.26;;;5.71;82.74
81997;BME280;71500;50.806;8.774;2023-12-20T10:41:51;99580.80;;;5.72;82.67
81997;BME280;71500;50.806;8.774;2023-12-20T10:44:23;99583.76;;;5.75;82.64
81997;BME280;71500;50.806;8.774;2023-12-20T10:46:54;99585.29;;;5.78;82.68
81997;BME280;71500;50.806;8.774;2023-12-20T10:49:29;99581.51;;;5.81;82.73
81997;BME280;71500;50.806;8.774;2023-12-20T10:52:02;99581.79;;;5.83;82.60
81997;BME280;71500;50.806;8.774;2023-12-20T10:54:35;99584.43;;;5.83;82.71
81997;BME280;71500;50.806;8.774;2023-12-20T10:57:07;99587.98;;;5.82;82.84
81997;BME280;71500;50.806;8.774;2023-12-20T10:59:39;99588.32;;;5.82;82.61
81997;BME280;71500;50.806;8.774;2023-12-20T11:02:10;99588.09;;;5.83;82.70
81997;BME280;71500;50.806;8.774;2023-12-20T11:04:49;99591.35;;;5.85;82.79
81997;BME280;71500;50.806;8.774;2023-12-20T11:07:29;99592.60;;;5.82;82.37
81997;BME280;71500;50.806;8.774;2023-12-20T11:10:09;99585.19;;;5.77;82.53
81997;BME280;71500;50.806;8.774;2023-12-20T11:12:46;99584.17;;;5.74;82.76
81997;BME280;71500;50.806;8.774;2023-12-20T11:15:20;99583.98;;;5.76;82.70
81997;BME280;71500;50.806;8.774;2023-12-20T11:17:57;99585.63;;;5.75;82.72
81997;BME280;71500;50.806;8.774;2023-12-20T11:20:38;99581.14;;;5.74;82.97
81997;BME280;71500;50.806;8.774;2023-12-20T11:23:10;99582.11;;;5.73;82.97
81997;BME280;71500;50.806;8.774;2023-12-20T11:25:57;99578.71;;;5.69;83.14
81997;BME280;71500;50.806;8.774;2023-12-20T11:28:29;99581.66;;;5.70;83.41
81997;BME280;71500;50.806;8.774;2023-12-20T11:31:02;99578.08;;;5.70;83.51
81997;BME280;71500;50.806;8.774;2023-12-20T11:33:37;99571.98;;;5.69;83.75
81997;BME280;71500;50.806;8.774;2023-12-20T11:36:18;99573.98;;;5.69;83.71
81997;BME280;71500;50.806;8.774;2023-12-20T11:38:55;99571.84;;;5.67;83.79
81997;BME280;71500;50.806;8.774;2023-12-20T11:41:28;99568.73;;;5.68;83.86
81997;BME280;71500;50.806;8.774;2023-12-20T11:43:59;99569.56;;;5.69;83.83
81997;BME280;71500;50.806;8.774;2023-12-20T11:46:32;99566.33;;;5.70;83.97
81997;BME280;71500;50.806;8.774;2023-12-20T11:49:04;99558.98;;;5.71;83.77
81997;BME280;71500;50.806;8.774;2023-12-20T11:51:35;99555.55;;;5.72;83.71
81997;BME280;71500;50.806;8.774;2023-12-20T11:54:11;99553.54;;;5.76;83.55
81997;BME280;71500;50.806;8.774;2023-12-20T11:56:43;99555.45;;;5.79;83.54
81997;BME280;71500;50.806;8.774;2023-12-20T11:59:14;99554.98;;;5.80;83.55
81997;BME280;71500;50.806;8.774;2023-12-20T12:01:53;99552.05;;;5.82;83.60
81997;BME280;71500;50.806;8.774;2023-12-20T12:04:26;99548.98;;;5.83;83.57
81997;BME280;71500;50.806;8.774;2023-12-20T12:06:58;99545.52;;;5.85;83.57
81997;BME280;71500;50.806;8.774;2023-12-20T12:09:30;99544.89;;;5.86;83.70
81997;BME280;71500;50.806;8.774;2023-12-20T12:12:02;99543.73;;;5.85;83.83
81997;BME280;71500;50.806;8.774;2023-12-20T12:14:33;99540.05;;;5.82;83.85
81997;BME280;71500;50.806;8.774;2023-12-20T12:17:11;99525.60;;;5.75;83.90
81997;BME280;71500;50.806;8.774;2023-12-20T12:19:43;99528.10;;;5.77;84.14
81997;BME280;71500;50.806;8.774;2023-12-20T12:22:15;99529.04;;;5.74;83.89
81997;BME280;71500;50.806;8.774;2023-12-20T12:24:49;99529.20;;;5.69;84.08
81997;BME280;71500;50.806;8.774;2023-12-20T12:27:21;99519.84;;;5.69;84.24
81997;BME280;71500;50.806;8.774;2023-12-20T12:30:04;99515.30;;;5.71;84.36
81997;BME280;71500;50.806;8.774;2023-12-20T12:32:38;99510.33;;;5.72;84.39
81997;BME280;71500;50.806;8.774;2023-12-20T12:35:10;99508.25;;;5.69;84.31
81997;BME280;71500;50.806;8.774;2023-12-20T12:37:42;99503.36;;;5.68;84.31
81997;BME280;71500;50.806;8.774;2023-12-20T12:40:15;99497.48;;;5.69;84.37
81997;BME280;71500;50.806;8.774;2023-12-20T12:42:47;99490.04;;;5.68;84.19
81997;BME280;71500;50.806;8.774;2023-12-20T12:45:19;99486.81;;;5.68;84.45
81997;BME280;71500;50.806;8.774;2023-12-20T12:47:50;99481.55;;;5.68;84.58
81997;BME280;71500;50.806;8.774;2023-12-20T12:50:22;99475.04;;;5.71;84.60
81997;BME280;71500;50.806;8.774;2023-12-20T12:52:54;99468.84;;;5.71;84.53
81997;BME280;71500;50.806;8.774;2023-12-20T12:55:25;99469.98;;;5.70;84.58
81997;BME280;71500;50.806;8.774;2023-12-20T12:57:57;99466.04;;;5.68;84.51
81997;BME280;71500;50.806;8.774;2023-12-20T13:00:28;99462.80;;;5.67;84.65
81997;BME280;71500;50.806;8.774;2023-12-20T13:02:59;99460.98;;;5.68;84.33
81997;BME280;71500;50.806;8.774;2023-12-20T13:05:31;99458.08;;;5.69;84.13
81997;BME280;71500;50.806;8.774;2023-12-20T13:08:08;99451.94;;;5.68;84.24
81997;BME280;71500;50.806;8.774;2023-12-20T13:10:42;99445.87;;;5.67;84.30
81997;BME280;71500;50.806;8.774;2023-12-20T13:13:14;99444.77;;;5.65;84.46
81997;BME280;71500;50.806;8.774;2023-12-20T13:15:45;99441.03;;;5.66;84.43
81997;BME280;71500;50.806;8.774;2023-12-20T13:18:21;99433.93;;;5.67;84.34
81997;BME280;71500;50.806;8.774;2023-12-20T13:20:52;99434.23;;;5.67;84.36
81997;BME280;71500;50.806;8.774;2023-12-20T13:23:24;99437.71;;;5.65;84.42
81997;BME280;71500;50.806;8.774;2023-12-20T13:25:55;99436.98;;;5.63;84.59
81997;BME280;71500;50.806;8.774;2023-12-20T13:28:26;99437.58;;;5.65;84.51
81997;BME280;71500;50.806;8.774;2023-12-20T13:30:58;99431.66;;;5.64;84.52
81997;BME280;71500;50.806;8.774;2023-12-20T13:33:30;99432.06;;;5.64;84.55
81997;BME280;71500;50.806;8.774;2023-12-20T13:36:02;99422.29;;;5.55;84.58